sensor_id;sensor_type;location;lat;lon;timestamp;pressure;altitude;pressure_sealevel;temperature;humidity
22104;BME280;11218;48.886;9.426;2023-05-14T00:01:35;98005.00;;;12.03;94.18
22104;BME280;11218;48.886;9.426;2023-05-14T00:04:04;98003.13;;;12.04;94.56
22104;BME280;11218;48.886;9.426;2023-05-14T00:06:33;98009.06;;;12.06;94.48
22104;BME280;11218;48.886;9.426;2023-05-14T00:09:01;98003.41;;;12.07;94.08
22104;BME280;11218;48.886;9.426;2023-05-14T00:11:30;97999.84;;;11.97;94.08
22104;BME280;11218;48.886;9.426;2023-05-14T00:13:58;97999.03;;;11.96;94.87
22104;BME280;11218;48.886;9.426;2023-05-14T00:16:26;98001.72;;;11.96;95.09
22104;BME280;11218;48.886;9.426;2023-05-14T00:18:54;97989.31;;;11.95;94.77
22104;BME280;11218;48.886;9.426;2023-05-14T00:21:22;97985.00;;;11.94;94.94
22104;BME280;11218;48.886;9.426;2023-05-14T00:23:51;97986.63;;;11.95;95.01
22104;BME280;11218;48.886;9.426;2023-05-14T00:26:21;97970.44;;;11.95;94.48
22104;BME280;11218;48.886;9.426;2023-05-14T00:28:49;97989.56;;;11.94;93.94
22104;BME280;11218;48.886;9.426;2023-05-14T00:31:17;97983.63;;;11.92;94.10
22104;BME280;11218;48.886;9.426;2023-05-14T00:33:45;97987.13;;;11.92;94.26
22104;BME280;11218;48.886;9.426;2023-05-14T00:36:13;97981.19;;;11.90;94.53
22104;BME280;11218;48.886;9.426;2023-05-14T00:38:41;97981.44;;;11.89;93.77
22104;BME280;11218;48.886;9.426;2023-05-14T00:41:11;97979.84;;;11.88;94.06
22104;BME280;11218;48.886;9.426;2023-05-14T00:43:39;97976.03;;;11.83;94.32
22104;BME280;11218;48.886;9.426;2023-05-14T00:46:07;97981.97;;;11.80;93.98
22104;BME280;11218;48.886;9.426;2023-05-14T00:48:38;97980.78;;;11.71;94.93
22104;BME280;11218;48.886;9.426;2023-05-14T00:51:06;97970.50;;;11.68;94.84
22104;BME280;11218;48.886;9.426;2023-05-14T00:53:35;97968.31;;;11.65;95.14
22104;BME280;11218;48.886;9.426;2023-05-14T00:56:04;97962.38;;;11.63;95.28
22104;BME280;11218;48.886;9.426;2023-05-14T00:58:36;97968.53;;;11.59;96.27
22104;BME280;11218;48.886;9.426;2023-05-14T01:01:07;97953.69;;;11.56;96.01
22104;BME280;11218;48.886;9.426;2023-05-14T01:03:35;97959.84;;;11.51;95.32
22104;BME280;11218;48.886;9.426;2023-05-14T01:06:10;97962.25;;;11.48;95.75
22104;BME280;11218;48.886;9.426;2023-05-14T01:08:48;97956.81;;;11.43;95.59
22104;BME280;11218;48.886;9.426;2023-05-14T01:11:20;97961.91;;;11.39;95.03
22104;BME280;11218;48.886;9.426;2023-05-14T01:13:58;97957.34;;;11.40;95.07
22104;BME280;11218;48.886;9.426;2023-05-14T01:16:32;97957.59;;;11.38;95.14
22104;BME280;11218;48.886;9.426;2023-05-14T01:19:01;97954.59;;;11.35;95.11
22104;BME280;11218;48.886;9.426;2023-05-14T01:21:36;97957.59;;;11.38;94.29
22104;BME280;11218;48.886;9.426;2023-05-14T01:24:06;97951.91;;;11.35;94.34
22104;BME280;11218;48.886;9.426;2023-05-14T01:26:35;97955.16;;;11.37;94.49
22104;BME280;11218;48.886;9.426;2023-05-14T01:29:10;97951.34;;;11.33;94.03
22104;BME280;11218;48.886;9.426;2023-05-14T01:31:42;97949.69;;;11.27;93.36
22104;BME280;11218;48.886;9.426;2023-05-14T01:34:11;97953.69;;;11.24;93.41
22104;BME280;11218;48.886;9.426;2023-05-14T01:36:42;97946.94;;;11.22;93.98
22104;BME280;11218;48.886;9.426;2023-05-14T01:39:13;97951.50;;;11.21;94.35
22104;BME280;11218;48.886;9.426;2023-05-14T01:41:41;97959.03;;;11.19;93.89
22104;BME280;11218;48.886;9.426;2023-05-14T01:44:11;97959.53;;;11.16;93.41
22104;BME280;11218;48.886;9.426;2023-05-14T01:46:39;97949.31;;;11.13;93.64
22104;BME280;11218;48.886;9.426;2023-05-14T01:49:07;97947.44;;;11.13;93.38
22104;BME280;11218;48.886;9.426;2023-05-14T01:51:35;97952.81;;;11.13;93.63
22104;BME280;11218;48.886;9.426;2023-05-14T01:54:05;97944.19;;;11.11;93.41
22104;BME280;11218;48.886;9.426;2023-05-14T01:56:33;97951.19;;;11.12;93.27
22104;BME280;11218;48.886;9.426;2023-05-14T01:59:04;97947.38;;;11.08;92.35
22104;BME280;11218;48.886;9.426;2023-05-14T02:01:32;97948.19;;;11.09;92.98
22104;BME280;11218;48.886;9.426;2023-05-14T02:04:00;97946.81;;;11.06;92.56
22104;BME280;11218;48.886;9.426;2023-05-14T02:06:29;97950.59;;;11.05;92.60
22104;BME280;11218;48.886;9.426;2023-05-14T02:08:57;97936.50;;;10.98;92.13
22104;BME280;11218;48.886;9.426;2023-05-14T02:11:27;97949.97;;;10.98;92.38
22104;BME280;11218;48.886;9.426;2023-05-14T02:13:55;97949.66;;;10.95;92.40
22104;BME280;11218;48.886;9.426;2023-05-14T02:16:23;97950.75;;;10.94;92.54
22104;BME280;11218;48.886;9.426;2023-05-14T02:18:51;97947.75;;;10.90;93.08
22104;BME280;11218;48.886;9.426;2023-05-14T02:21:19;97952.06;;;10.91;92.62
22104;BME280;11218;48.886;9.426;2023-05-14T02:23:47;97949.38;;;10.91;92.05
22104;BME280;11218;48.886;9.426;2023-05-14T02:26:19;97948.25;;;10.87;92.51
22104;BME280;11218;48.886;9.426;2023-05-14T02:28:49;97949.06;;;10.88;92.75
22104;BME280;11218;48.886;9.426;2023-05-14T02:31:17;97947.19;;;10.88;92.35
22104;BME280;11218;48.886;9.426;2023-05-14T02:33:45;97943.13;;;10.85;92.17
22104;BME280;11218;48.886;9.426;2023-05-14T02:36:13;97945.81;;;10.85;91.87
22104;BME280;11218;48.886;9.426;2023-05-14T02:38:41;97949.50;;;10.79;92.99
22104;BME280;11218;48.886;9.426;2023-05-14T02:41:09;97950.06;;;10.81;93.64
22104;BME280;11218;48.886;9.426;2023-05-14T02:43:37;97944.44;;;10.83;93.37
22104;BME280;11218;48.886;9.426;2023-05-14T02:46:07;97953.06;;;10.85;93.57
22104;BME280;11218;48.886;9.426;2023-05-14T02:48:35;97948.50;;;10.85;93.15
22104;BME280;11218;48.886;9.426;2023-05-14T02:51:06;97950.94;;;10.87;93.01
22104;BME280;11218;48.886;9.426;2023-05-14T02:53:34;97943.94;;;10.86;93.75
22104;BME280;11218;48.886;9.426;2023-05-14T02:56:03;97946.06;;;10.84;93.23
22104;BME280;11218;48.886;9.426;2023-05-14T02:58:31;97945.44;;;10.77;93.34
22104;BME280;11218;48.886;9.426;2023-05-14T03:00:59;97951.94;;;10.81;93.55
22104;BME280;11218;48.886;9.426;2023-05-14T03:03:29;97941.44;;;10.79;93.36
22104;BME280;11218;48.886;9.426;2023-05-14T03:05:58;97944.94;;;10.80;93.57
22104;BME280;11218;48.886;9.426;2023-05-14T03:08:26;97946.06;;;10.84;93.50
22104;BME280;11218;48.886;9.426;2023-05-14T03:10:54;97949.81;;;10.83;93.31
22104;BME280;11218;48.886;9.426;2023-05-14T03:13:22;97947.63;;;10.80;93.30
22104;BME280;11218;48.886;9.426;2023-05-14T03:15:53;97952.47;;;10.78;92.87
22104;BME280;11218;48.886;9.426;2023-05-14T03:18:25;97954.84;;;10.74;93.36
22104;BME280;11218;48.886;9.426;2023-05-14T03:20:58;97950.78;;;10.72;93.64
22104;BME280;11218;48.886;9.426;2023-05-14T03:23:26;97949.72;;;10.73;94.28
22104;BME280;11218;48.886;9.426;2023-05-14T03:25:54;97947.56;;;10.75;94.54
22104;BME280;11218;48.886;9.426;2023-05-14T03:28:22;97943.56;;;10.77;94.29
22104;BME280;11218;48.886;9.426;2023-05-14T03:30:50;97948.19;;;10.82;94.46
22104;BME280;11218;48.886;9.426;2023-05-14T03:33:18;97951.69;;;10.82;94.50
22104;BME280;11218;48.886;9.426;2023-05-14T03:35:47;97945.56;;;10.87;94.35
22104;BME280;11218;48.886;9.426;2023-05-14T03:38:16;97948.56;;;10.91;94.61
22104;BME280;11218;48.886;9.426;2023-05-14T03:40:44;97948.31;;;10.92;94.67
22104;BME280;11218;48.886;9.426;2023-05-14T03:43:12;97944.53;;;10.93;94.54
22104;BME280;11218;48.886;9.426;2023-05-14T03:45:41;97942.97;;;10.97;94.40
22104;BME280;11218;48.886;9.426;2023-05-14T03:48:11;97940.84;;;10.99;94.17
22104;BME280;11218;48.886;9.426;2023-05-14T03:50:40;97942.19;;;11.02;94.12
22104;BME280;11218;48.886;9.426;2023-05-14T03:53:08;97945.44;;;11.04;94.70
22104;BME280;11218;48.886;9.426;2023-05-14T03:55:38;97938.75;;;11.06;94.04
22104;BME280;11218;48.886;9.426;2023-05-14T03:58:06;97937.94;;;11.06;94.28
22104;BME280;11218;48.886;9.426;2023-05-14T04:00:39;97935.25;;;11.06;94.25
22104;BME280;11218;48.886;9.426;2023-05-14T04:03:08;97929.84;;;11.06;94.31
22104;BME280;11218;48.886;9.426;2023-05-14T04:05:36;97938.75;;;11.06;93.71
22104;BME280;11218;48.886;9.426;2023-05-14T04:08:04;97946.56;;;11.08;93.90
22104;BME280;11218;48.886;9.426;2023-05-14T04:10:33;97942.50;;;11.05;93.35
22104;BME280;11218;48.886;9.426;2023-05-14T04:13:02;97942.50;;;11.05;94.35
22104;BME280;11218;48.886;9.426;2023-05-14T04:15:31;97934.38;;;11.00;94.55
22104;BME280;11218;48.886;9.426;2023-05-14T04:17:59;97931.72;;;11.05;94.51
22104;BME280;11218;48.886;9.426;2023-05-14T04:20:27;97941.19;;;11.08;94.34
22104;BME280;11218;48.886;9.426;2023-05-14T04:22:55;97932.28;;;11.07;94.85
22104;BME280;11218;48.886;9.426;2023-05-14T04:25:23;97938.25;;;11.14;94.59
22104;BME280;11218;48.886;9.426;2023-05-14T04:27:51;97930.97;;;11.15;94.55
22104;BME280;11218;48.886;9.426;2023-05-14T04:30:20;97933.41;;;11.16;94.15
22104;BME280;11218;48.886;9.426;2023-05-14T04:32:48;97936.91;;;11.12;94.42
22104;BME280;11218;48.886;9.426;2023-05-14T04:35:17;97932.88;;;11.14;94.37
22104;BME280;11218;48.886;9.426;2023-05-14T04:37:49;97938.56;;;11.18;94.27
22104;BME280;11218;48.886;9.426;2023-05-14T04:40:17;97940.19;;;11.19;93.65
22104;BME280;11218;48.886;9.426;2023-05-14T04:42:45;97946.06;;;11.11;94.24
22104;BME280;11218;48.886;9.426;2023-05-14T04:45:13;97936.38;;;11.15;94.68
22104;BME280;11218;48.886;9.426;2023-05-14T04:47:45;97929.91;;;11.16;94.77
22104;BME280;11218;48.886;9.426;2023-05-14T04:50:13;97927.78;;;11.18;94.73
22104;BME280;11218;48.886;9.426;2023-05-14T04:52:41;97926.72;;;11.19;94.30
22104;BME280;11218;48.886;9.426;2023-05-14T04:55:09;97936.97;;;11.22;94.12
22104;BME280;11218;48.886;9.426;2023-05-14T04:57:37;97935.66;;;11.25;94.26
22104;BME280;11218;48.886;9.426;2023-05-14T05:00:06;97942.09;;;11.24;94.10
22104;BME280;11218;48.886;9.426;2023-05-14T05:02:35;97942.09;;;11.24;94.26
22104;BME280;11218;48.886;9.426;2023-05-14T05:05:05;97933.75;;;11.25;93.38
22104;BME280;11218;48.886;9.426;2023-05-14T05:07:34;97932.13;;;11.24;93.73
22104;BME280;11218;48.886;9.426;2023-05-14T05:10:02;97944.28;;;11.27;93.96
22104;BME280;11218;48.886;9.426;2023-05-14T05:12:30;97941.34;;;11.28;93.48
22104;BME280;11218;48.886;9.426;2023-05-14T05:14:58;97933.56;;;11.32;93.51
22104;BME280;11218;48.886;9.426;2023-05-14T05:17:29;97940.06;;;11.36;93.72
22104;BME280;11218;48.886;9.426;2023-05-14T05:19:57;97937.09;;;11.37;93.46
22104;BME280;11218;48.886;9.426;2023-05-14T05:22:26;97940.09;;;11.41;93.59
22104;BME280;11218;48.886;9.426;2023-05-14T05:24:57;97937.16;;;11.42;93.76
22104;BME280;11218;48.886;9.426;2023-05-14T05:27:25;97933.97;;;11.50;93.77
22104;BME280;11218;48.886;9.426;2023-05-14T05:29:53;97936.97;;;11.54;93.37
22104;BME280;11218;48.886;9.426;2023-05-14T05:32:22;97923.75;;;11.52;93.41
22104;BME280;11218;48.886;9.426;2023-05-14T05:34:50;97932.44;;;11.60;93.19
22104;BME280;11218;48.886;9.426;2023-05-14T05:37:18;97937.56;;;11.61;92.95
22104;BME280;11218;48.886;9.426;2023-05-14T05:39:51;97933.78;;;11.62;93.04
22104;BME280;11218;48.886;9.426;2023-05-14T05:42:19;97938.94;;;11.64;93.37
22104;BME280;11218;48.886;9.426;2023-05-14T05:44:48;97932.47;;;11.65;92.89
22104;BME280;11218;48.886;9.426;2023-05-14T05:47:16;97927.63;;;11.67;93.37
22104;BME280;11218;48.886;9.426;2023-05-14T05:49:44;97927.38;;;11.68;93.78
22104;BME280;11218;48.886;9.426;2023-05-14T05:52:12;97929.28;;;11.73;93.18
22104;BME280;11218;48.886;9.426;2023-05-14T05:54:40;97927.41;;;11.73;93.38
22104;BME280;11218;48.886;9.426;2023-05-14T05:57:10;97924.78;;;11.78;93.38
22104;BME280;11218;48.886;9.426;2023-05-14T05:59:38;97927.22;;;11.80;93.07
22104;BME280;11218;48.886;9.426;2023-05-14T06:02:06;97935.34;;;11.85;92.72
22104;BME280;11218;48.886;9.426;2023-05-14T06:04:34;97933.44;;;11.91;92.72
22104;BME280;11218;48.886;9.426;2023-05-14T06:07:02;97924.81;;;11.89;91.75
22104;BME280;11218;48.886;9.426;2023-05-14T06:09:30;97937.75;;;11.87;91.94
22104;BME280;11218;48.886;9.426;2023-05-14T06:11:58;97928.88;;;11.86;91.19
22104;BME280;11218;48.886;9.426;2023-05-14T06:14:28;97935.06;;;11.92;90.71
22104;BME280;11218;48.886;9.426;2023-05-14T06:16:56;97930.75;;;11.86;90.86
22104;BME280;11218;48.886;9.426;2023-05-14T06:19:24;97937.50;;;11.88;90.63
22104;BME280;11218;48.886;9.426;2023-05-14T06:21:52;97935.88;;;11.87;91.23
22104;BME280;11218;48.886;9.426;2023-05-14T06:24:23;97942.91;;;11.93;90.70
22104;BME280;11218;48.886;9.426;2023-05-14T06:26:51;97932.94;;;11.94;90.31
22104;BME280;11218;48.886;9.426;2023-05-14T06:29:19;97942.63;;;11.95;89.65
22104;BME280;11218;48.886;9.426;2023-05-14T06:31:48;97941.00;;;11.94;91.04
22104;BME280;11218;48.886;9.426;2023-05-14T06:34:16;97940.22;;;11.93;90.86
22104;BME280;11218;48.886;9.426;2023-05-14T06:36:45;97947.81;;;12.01;90.50
22104;BME280;11218;48.886;9.426;2023-05-14T06:39:13;97942.66;;;12.00;91.27
22104;BME280;11218;48.886;9.426;2023-05-14T06:41:43;97939.22;;;12.09;91.04
22104;BME280;11218;48.886;9.426;2023-05-14T06:44:11;97939.78;;;12.11;90.67
22104;BME280;11218;48.886;9.426;2023-05-14T06:46:39;97933.63;;;12.21;90.40
22104;BME280;11218;48.886;9.426;2023-05-14T06:49:09;97930.13;;;12.26;90.37
22104;BME280;11218;48.886;9.426;2023-05-14T06:51:37;97929.91;;;12.37;90.51
22104;BME280;11218;48.886;9.426;2023-05-14T06:54:06;97927.28;;;12.53;89.64
22104;BME280;11218;48.886;9.426;2023-05-14T06:56:34;97934.31;;;12.59;89.70
22104;BME280;11218;48.886;9.426;2023-05-14T06:59:02;97931.38;;;12.75;89.41
22104;BME280;11218;48.886;9.426;2023-05-14T07:01:30;97934.63;;;12.82;88.61
22104;BME280;11218;48.886;9.426;2023-05-14T07:03:58;97930.06;;;12.93;88.83
22104;BME280;11218;48.886;9.426;2023-05-14T07:06:28;97929.00;;;13.04;88.03
22104;BME280;11218;48.886;9.426;2023-05-14T07:08:56;97932.25;;;13.11;88.26
22104;BME280;11218;48.886;9.426;2023-05-14T07:11:24;97930.91;;;13.14;87.97
22104;BME280;11218;48.886;9.426;2023-05-14T07:13:52;97932.28;;;13.17;87.16
22104;BME280;11218;48.886;9.426;2023-05-14T07:16:20;97924.44;;;13.20;86.08
22104;BME280;11218;48.886;9.426;2023-05-14T07:18:48;97931.47;;;13.16;86.34
22104;BME280;11218;48.886;9.426;2023-05-14T07:21:17;97931.72;;;13.14;86.50
22104;BME280;11218;48.886;9.426;2023-05-14T07:23:46;97926.06;;;13.21;87.26
22104;BME280;11218;48.886;9.426;2023-05-14T07:26:14;97929.31;;;13.23;86.20
22104;BME280;11218;48.886;9.426;2023-05-14T07:28:42;97918.50;;;13.33;84.14
22104;BME280;11218;48.886;9.426;2023-05-14T07:31:10;97929.06;;;13.25;85.73
22104;BME280;11218;48.886;9.426;2023-05-14T07:33:38;97924.72;;;13.29;85.72
22104;BME280;11218;48.886;9.426;2023-05-14T07:36:06;97923.88;;;13.38;85.97
22104;BME280;11218;48.886;9.426;2023-05-14T07:38:34;97917.66;;;13.48;86.10
22104;BME280;11218;48.886;9.426;2023-05-14T07:41:04;97916.59;;;13.54;85.34
22104;BME280;11218;48.886;9.426;2023-05-14T07:43:32;97924.16;;;13.57;84.86
22104;BME280;11218;48.886;9.426;2023-05-14T07:46:00;97922.00;;;13.59;83.43
22104;BME280;11218;48.886;9.426;2023-05-14T07:48:28;97916.59;;;13.59;83.17
22104;BME280;11218;48.886;9.426;2023-05-14T07:50:56;97919.00;;;13.61;82.15
22104;BME280;11218;48.886;9.426;2023-05-14T07:53:24;97920.09;;;13.65;83.68
22104;BME280;11218;48.886;9.426;2023-05-14T07:55:52;97919.53;;;13.78;83.98
22104;BME280;11218;48.886;9.426;2023-05-14T07:58:21;97915.72;;;13.99;83.22
22104;BME280;11218;48.886;9.426;2023-05-14T08:00:50;97912.63;;;14.21;83.47
22104;BME280;11218;48.886;9.426;2023-05-14T08:03:18;97904.94;;;14.54;81.03
22104;BME280;11218;48.886;9.426;2023-05-14T08:05:47;97901.34;;;14.68;78.50
22104;BME280;11218;48.886;9.426;2023-05-14T08:08:15;97899.81;;;14.96;77.83
22104;BME280;11218;48.886;9.426;2023-05-14T08:10:43;97905.50;;;15.34;76.04
22104;BME280;11218;48.886;9.426;2023-05-14T08:13:11;97912.66;;;15.59;74.49
22104;BME280;11218;48.886;9.426;2023-05-14T08:15:40;97911.34;;;15.80;73.05
22104;BME280;11218;48.886;9.426;2023-05-14T08:18:08;97897.19;;;15.83;73.07
22104;BME280;11218;48.886;9.426;2023-05-14T08:20:36;97903.00;;;15.71;73.43
22104;BME280;11218;48.886;9.426;2023-05-14T08:23:04;97900.09;;;15.63;74.69
22104;BME280;11218;48.886;9.426;2023-05-14T08:25:32;97895.56;;;15.53;74.84
22104;BME280;11218;48.886;9.426;2023-05-14T08:28:00;97902.09;;;15.52;75.80
22104;BME280;11218;48.886;9.426;2023-05-14T08:30:28;97895.31;;;15.50;75.79
22104;BME280;11218;48.886;9.426;2023-05-14T08:32:58;97891.56;;;15.45;76.20
22104;BME280;11218;48.886;9.426;2023-05-14T08:35:26;97889.66;;;15.46;76.94
22104;BME280;11218;48.886;9.426;2023-05-14T08:37:54;97887.84;;;15.65;75.47
22104;BME280;11218;48.886;9.426;2023-05-14T08:40:25;97896.81;;;15.66;74.63
22104;BME280;11218;48.886;9.426;2023-05-14T08:42:55;97893.38;;;15.55;74.21
22104;BME280;11218;48.886;9.426;2023-05-14T08:45:28;97888.09;;;15.40;75.49
22104;BME280;11218;48.886;9.426;2023-05-14T08:48:02;97891.69;;;15.30;77.20
22104;BME280;11218;48.886;9.426;2023-05-14T08:50:34;97891.69;;;15.30;77.79
22104;BME280;11218;48.886;9.426;2023-05-14T08:53:03;97885.13;;;15.36;77.74
22104;BME280;11218;48.886;9.426;2023-05-14T08:55:31;97890.56;;;15.36;77.53
22104;BME280;11218;48.886;9.426;2023-05-14T08:57:59;97891.31;;;15.42;77.70
22104;BME280;11218;48.886;9.426;2023-05-14T09:00:28;97888.84;;;15.45;75.79
22104;BME280;11218;48.886;9.426;2023-05-14T09:02:56;97877.28;;;15.35;76.58
22104;BME280;11218;48.886;9.426;2023-05-14T09:05:27;97878.09;;;15.35;76.68
22104;BME280;11218;48.886;9.426;2023-05-14T09:07:55;97884.53;;;15.44;76.60
22104;BME280;11218;48.886;9.426;2023-05-14T09:10:23;97886.94;;;15.46;76.22
22104;BME280;11218;48.886;9.426;2023-05-14T09:12:52;97884.47;;;15.50;75.94
22104;BME280;11218;48.886;9.426;2023-05-14T09:15:20;97873.63;;;15.50;76.35
22104;BME280;11218;48.886;9.426;2023-05-14T09:17:49;97879.28;;;15.53;76.32
22104;BME280;11218;48.886;9.426;2023-05-14T09:20:19;97879.19;;;15.63;74.35
22104;BME280;11218;48.886;9.426;2023-05-14T09:22:52;97876.88;;;15.52;75.33
22104;BME280;11218;48.886;9.426;2023-05-14T09:25:25;97882.81;;;15.54;74.92
22104;BME280;11218;48.886;9.426;2023-05-14T09:27:54;97870.34;;;15.53;74.08
22104;BME280;11218;48.886;9.426;2023-05-14T09:30:24;97872.28;;;15.47;75.18
22104;BME280;11218;48.886;9.426;2023-05-14T09:32:53;97872.06;;;15.43;74.35
22104;BME280;11218;48.886;9.426;2023-05-14T09:35:22;97862.53;;;15.46;75.37
22104;BME280;11218;48.886;9.426;2023-05-14T09:37:53;97873.34;;;15.51;75.22
22104;BME280;11218;48.886;9.426;2023-05-14T09:40:22;97869.88;;;15.45;74.25
22104;BME280;11218;48.886;9.426;2023-05-14T09:42:51;97874.28;;;15.36;74.41
22104;BME280;11218;48.886;9.426;2023-05-14T09:45:19;97871.94;;;15.25;75.10
22104;BME280;11218;48.886;9.426;2023-05-14T09:47:47;97874.13;;;15.23;75.93
22104;BME280;11218;48.886;9.426;2023-05-14T09:50:15;97871.66;;;15.26;75.86
22104;BME280;11218;48.886;9.426;2023-05-14T09:52:43;97869.28;;;15.20;75.95
22104;BME280;11218;48.886;9.426;2023-05-14T09:55:13;97865.66;;;15.29;76.49
22104;BME280;11218;48.886;9.426;2023-05-14T09:57:43;97866.97;;;15.37;75.98
22104;BME280;11218;48.886;9.426;2023-05-14T10:00:13;97860.69;;;15.41;75.76
22104;BME280;11218;48.886;9.426;2023-05-14T10:02:41;97863.06;;;15.48;75.85
22104;BME280;11218;48.886;9.426;2023-05-14T10:05:12;97854.59;;;15.55;75.04
22104;BME280;11218;48.886;9.426;2023-05-14T10:07:43;97850.25;;;15.54;75.08
22104;BME280;11218;48.886;9.426;2023-05-14T10:10:17;97861.44;;;15.47;74.41
22104;BME280;11218;48.886;9.426;2023-05-14T10:12:50;97855.50;;;15.45;74.47
22104;BME280;11218;48.886;9.426;2023-05-14T10:15:23;97855.72;;;15.49;74.98
22104;BME280;11218;48.886;9.426;2023-05-14T10:17:55;97853.44;;;15.61;73.69
22104;BME280;11218;48.886;9.426;2023-05-14T10:20:26;97852.53;;;15.70;72.85
22104;BME280;11218;48.886;9.426;2023-05-14T10:22:56;97851.97;;;15.73;73.10
22104;BME280;11218;48.886;9.426;2023-05-14T10:25:26;97858.13;;;15.79;73.11
22104;BME280;11218;48.886;9.426;2023-05-14T10:27:54;97852.38;;;15.86;73.61
22104;BME280;11218;48.886;9.426;2023-05-14T10:30:23;97836.72;;;16.01;71.34
22104;BME280;11218;48.886;9.426;2023-05-14T10:33:05;97839.19;;;15.98;71.56
22104;BME280;11218;48.886;9.426;2023-05-14T10:35:55;97845.25;;;16.14;70.27
22104;BME280;11218;48.886;9.426;2023-05-14T10:38:25;97838.72;;;16.15;71.61
22104;BME280;11218;48.886;9.426;2023-05-14T10:41:01;97832.31;;;16.29;69.03
22104;BME280;11218;48.886;9.426;2023-05-14T10:43:30;97846.25;;;16.41;69.57
22104;BME280;11218;48.886;9.426;2023-05-14T10:46:07;97835.06;;;16.43;70.51
22104;BME280;11218;48.886;9.426;2023-05-14T10:48:37;97842.94;;;16.63;68.12
22104;BME280;11218;48.886;9.426;2023-05-14T10:51:07;97836.06;;;16.71;68.43
22104;BME280;11218;48.886;9.426;2023-05-14T10:53:40;97831.16;;;16.73;66.58
22104;BME280;11218;48.886;9.426;2023-05-14T10:56:11;97829.53;;;16.72;67.37
22104;BME280;11218;48.886;9.426;2023-05-14T10:58:41;97833.66;;;16.88;67.97
22104;BME280;11218;48.886;9.426;2023-05-14T11:01:12;97837.22;;;17.02;66.98
22104;BME280;11218;48.886;9.426;2023-05-14T11:03:42;97829.88;;;17.03;66.59
22104;BME280;11218;48.886;9.426;2023-05-14T11:06:11;97832.41;;;17.13;66.05
22104;BME280;11218;48.886;9.426;2023-05-14T11:08:40;97836.44;;;17.16;65.00
22104;BME280;11218;48.886;9.426;2023-05-14T11:11:11;97825.78;;;17.19;65.67
22104;BME280;11218;48.886;9.426;2023-05-14T11:13:40;97833.97;;;17.33;62.57
22104;BME280;11218;48.886;9.426;2023-05-14T11:16:08;97820.06;;;17.34;60.28
22104;BME280;11218;48.886;9.426;2023-05-14T11:18:53;97815.03;;;17.28;61.95
22104;BME280;11218;48.886;9.426;2023-05-14T11:21:27;97813.84;;;17.48;64.54
22104;BME280;11218;48.886;9.426;2023-05-14T11:23:58;97805.44;;;17.77;64.92
22104;BME280;11218;48.886;9.426;2023-05-14T11:26:28;97807.53;;;17.93;61.37
22104;BME280;11218;48.886;9.426;2023-05-14T11:28:56;97804.41;;;17.86;62.28
22104;BME280;11218;48.886;9.426;2023-05-14T11:31:25;97809.25;;;18.03;62.16
22104;BME280;11218;48.886;9.426;2023-05-14T11:33:53;97803.91;;;17.98;60.51
22104;BME280;11218;48.886;9.426;2023-05-14T11:36:21;97801.69;;;18.00;60.60
22104;BME280;11218;48.886;9.426;2023-05-14T11:38:49;97805.53;;;17.99;62.12
22104;BME280;11218;48.886;9.426;2023-05-14T11:41:19;97809.56;;;18.01;61.03
22104;BME280;11218;48.886;9.426;2023-05-14T11:43:50;97806.53;;;18.17;59.85
22104;BME280;11218;48.886;9.426;2023-05-14T11:46:18;97796.88;;;18.47;60.04
22104;BME280;11218;48.886;9.426;2023-05-14T11:48:49;97790.16;;;18.66;61.11
22104;BME280;11218;48.886;9.426;2023-05-14T11:51:22;97782.88;;;18.76;59.19
22104;BME280;11218;48.886;9.426;2023-05-14T11:54:13;97780.56;;;19.14;57.80
22104;BME280;11218;48.886;9.426;2023-05-14T11:56:59;97800.28;;;19.42;56.12
22104;BME280;11218;48.886;9.426;2023-05-14T11:59:55;97791.16;;;19.46;56.86
22104;BME280;11218;48.886;9.426;2023-05-14T12:02:39;97783.72;;;19.60;57.23
22104;BME280;11218;48.886;9.426;2023-05-14T12:05:13;97773.16;;;19.67;54.82
22104;BME280;11218;48.886;9.426;2023-05-14T12:07:44;97788.28;;;19.74;54.92
22104;BME280;11218;48.886;9.426;2023-05-14T12:10:17;97771.53;;;19.66;53.59
22104;BME280;11218;48.886;9.426;2023-05-14T12:12:46;97773.16;;;19.67;54.36
22104;BME280;11218;48.886;9.426;2023-05-14T12:15:32;97768.25;;;19.87;56.02
22104;BME280;11218;48.886;9.426;2023-05-14T12:18:07;97766.22;;;20.27;55.12
22104;BME280;11218;48.886;9.426;2023-05-14T12:20:50;97766.19;;;20.10;51.62
22104;BME280;11218;48.886;9.426;2023-05-14T12:23:24;97783.06;;;19.94;51.95
22104;BME280;11218;48.886;9.426;2023-05-14T12:26:00;97766.78;;;19.89;52.69
22104;BME280;11218;48.886;9.426;2023-05-14T12:28:38;97766.00;;;19.89;53.15
22104;BME280;11218;48.886;9.426;2023-05-14T12:31:31;97763.78;;;19.99;54.20
22104;BME280;11218;48.886;9.426;2023-05-14T12:34:11;97750.22;;;19.77;52.17
22104;BME280;11218;48.886;9.426;2023-05-14T12:36:42;97747.06;;;19.53;51.64
22104;BME280;11218;48.886;9.426;2023-05-14T12:39:17;97749.34;;;19.59;53.70
22104;BME280;11218;48.886;9.426;2023-05-14T12:41:47;97754.13;;;19.93;51.37
22104;BME280;11218;48.886;9.426;2023-05-14T12:44:32;97754.41;;;19.83;51.79
22104;BME280;11218;48.886;9.426;2023-05-14T12:47:05;97752.13;;;19.77;52.39
22104;BME280;11218;48.886;9.426;2023-05-14T12:49:36;97743.41;;;19.66;52.78
22104;BME280;11218;48.886;9.426;2023-05-14T12:52:15;97742.94;;;19.64;52.29
22104;BME280;11218;48.886;9.426;2023-05-14T12:54:58;97735.94;;;19.49;52.39
22104;BME280;11218;48.886;9.426;2023-05-14T12:57:28;97720.91;;;19.60;52.89
22104;BME280;11218;48.886;9.426;2023-05-14T13:00:02;97730.94;;;19.82;52.43
22104;BME280;11218;48.886;9.426;2023-05-14T13:02:35;97726.44;;;19.78;52.38
22104;BME280;11218;48.886;9.426;2023-05-14T13:05:25;97719.00;;;19.69;51.17
22104;BME280;11218;48.886;9.426;2023-05-14T13:07:53;97731.06;;;19.68;52.38
22104;BME280;11218;48.886;9.426;2023-05-14T13:10:21;97725.94;;;19.45;52.41
22104;BME280;11218;48.886;9.426;2023-05-14T13:12:50;97717.41;;;19.29;52.28
22104;BME280;11218;48.886;9.426;2023-05-14T13:15:18;97718.34;;;19.33;52.63